createdAt,value
2023-03-31T00:00:17.362Z,1.40
2023-03-31T00:01:17.338Z,1.30
2023-03-31T00:02:17.356Z,1.60
2023-03-31T00:03:17.464Z,1.40
2023-03-31T00:04:17.546Z,1.40
2023-03-31T00:05:17.304Z,1.50
2023-03-31T00:06:17.311Z,1.30
2023-03-31T00:07:17.312Z,1.30
2023-03-31T00:08:17.317Z,1.40
2023-03-31T00:09:17.305Z,1.30
2023-03-31T00:10:18.624Z,1.20
2023-03-31T00:11:17.338Z,1.40
2023-03-31T00:12:17.281Z,1.60
2023-03-31T00:13:17.282Z,1.50
2023-03-31T00:14:17.266Z,1.90
2023-03-31T00:15:17.270Z,1.60
2023-03-31T00:16:17.284Z,1.40
2023-03-31T00:17:17.232Z,1.60
2023-03-31T00:18:17.258Z,1.50
2023-03-31T00:19:17.224Z,1.60
2023-03-31T00:20:17.270Z,1.50
2023-03-31T00:21:17.209Z,3.20
2023-03-31T00:22:17.276Z,2.20
2023-03-31T00:23:17.225Z,1.70
2023-03-31T00:24:17.190Z,1.90
2023-03-31T00:25:17.179Z,2.50
2023-03-31T00:26:17.169Z,2.90
2023-03-31T00:27:17.167Z,3.10
2023-03-31T00:28:17.183Z,2.40
2023-03-31T00:29:17.148Z,1.60
2023-03-31T00:30:17.129Z,1.50
2023-03-31T00:31:17.167Z,1.40
2023-03-31T00:32:17.188Z,1.50
2023-03-31T00:33:17.156Z,1.40
2023-03-31T00:34:17.125Z,1.40
2023-03-31T00:35:17.125Z,1.40
2023-03-31T00:36:17.203Z,1.40
2023-03-31T00:37:17.102Z,1.40
2023-03-31T00:38:17.120Z,1.60
2023-03-31T00:39:17.089Z,1.40
2023-03-31T00:40:17.087Z,1.40
2023-03-31T00:41:17.072Z,1.50
2023-03-31T00:42:17.080Z,1.40
2023-03-31T00:43:17.062Z,1.40
2023-03-31T00:44:17.071Z,1.30
2023-03-31T00:45:17.027Z,1.30
2023-03-31T00:46:17.147Z,1.40
2023-03-31T00:47:17.013Z,1.50
2023-03-31T00:48:17.054Z,1.50
2023-03-31T00:49:17.019Z,1.50
2023-03-31T00:50:17.021Z,1.60
2023-03-31T00:51:16.996Z,1.60
2023-03-31T00:52:17.033Z,1.40
2023-03-31T00:53:17.011Z,1.30
2023-03-31T00:54:16.966Z,1.30
2023-03-31T00:55:16.994Z,1.30
2023-03-31T00:56:16.952Z,1.30
2023-03-31T00:57:16.978Z,1.30
2023-03-31T00:58:16.957Z,1.20
2023-03-31T00:59:16.956Z,1.20
2023-03-31T01:00:16.981Z,1.40
2023-03-31T01:01:17.010Z,1.30
2023-03-31T01:02:16.910Z,1.30
2023-03-31T01:03:16.972Z,1.40
2023-03-31T01:04:16.907Z,1.40
2023-03-31T01:05:16.914Z,1.10
2023-03-31T01:06:16.920Z,1.20
2023-03-31T01:07:17.039Z,1.40
2023-03-31T01:08:16.894Z,1.30
2023-03-31T01:09:16.899Z,1.20
2023-03-31T01:10:16.864Z,1.40
2023-03-31T01:11:16.872Z,1.30
2023-03-31T01:12:16.884Z,1.00
2023-03-31T01:13:16.880Z,1.10
2023-03-31T01:14:17.784Z,1.20
2023-03-31T01:15:16.832Z,1.40
2023-03-31T01:16:16.865Z,1.30
2023-03-31T01:17:16.904Z,1.30
2023-03-31T01:18:16.906Z,1.20
2023-03-31T01:19:16.826Z,1.40
2023-03-31T01:20:16.830Z,1.40
2023-03-31T01:21:16.777Z,1.40
2023-03-31T01:22:16.843Z,1.40
2023-03-31T01:23:16.831Z,1.40
2023-03-31T01:24:16.783Z,1.30
2023-03-31T01:25:16.767Z,1.40
2023-03-31T01:26:17.767Z,1.60
2023-03-31T01:27:16.750Z,1.50
2023-03-31T01:28:16.763Z,1.80
2023-03-31T01:29:16.728Z,1.80
2023-03-31T01:30:16.748Z,1.60
2023-03-31T01:31:16.759Z,1.90
2023-03-31T01:32:16.717Z,1.70
2023-03-31T01:33:16.747Z,1.90
2023-03-31T01:34:16.708Z,1.70
2023-03-31T01:35:16.716Z,1.60
2023-03-31T01:36:16.761Z,1.40
2023-03-31T01:37:16.678Z,1.70
2023-03-31T01:38:16.683Z,1.60
2023-03-31T01:39:16.658Z,1.50
2023-03-31T01:40:16.668Z,1.60
2023-03-31T01:41:17.931Z,1.30
2023-03-31T01:42:16.662Z,1.40
2023-03-31T01:43:16.670Z,1.40
2023-03-31T01:44:16.646Z,1.50
2023-03-31T01:45:16.635Z,1.40
2023-03-31T01:46:16.673Z,1.40
2023-03-31T01:47:16.616Z,1.40
2023-03-31T01:48:16.602Z,1.50
2023-03-31T01:49:16.629Z,1.40
2023-03-31T01:50:16.616Z,1.40
2023-03-31T01:51:16.629Z,1.60
2023-03-31T01:52:16.622Z,1.30
2023-03-31T01:53:16.588Z,1.50
2023-03-31T01:54:16.585Z,1.50
2023-03-31T01:55:16.559Z,1.20
2023-03-31T01:56:16.562Z,1.60
2023-03-31T01:57:16.736Z,1.70
2023-03-31T01:58:16.575Z,1.50
2023-03-31T01:59:16.553Z,1.50
2023-03-31T02:00:16.528Z,1.50
2023-03-31T02:01:16.565Z,1.40
2023-03-31T02:02:16.533Z,1.30
2023-03-31T02:03:16.563Z,1.40
2023-03-31T02:04:16.524Z,1.30
2023-03-31T02:05:16.588Z,1.50
2023-03-31T02:06:16.527Z,1.60
2023-03-31T02:07:16.482Z,1.50
2023-03-31T02:08:16.473Z,1.40
2023-03-31T02:09:16.496Z,1.40
2023-03-31T02:10:16.479Z,1.50
2023-03-31T02:11:16.467Z,1.30
2023-03-31T02:12:16.447Z,1.30
2023-03-31T02:13:16.424Z,1.40
2023-03-31T02:14:16.440Z,1.40
2023-03-31T02:15:16.421Z,1.60
2023-03-31T02:16:16.423Z,1.60
2023-03-31T02:17:16.402Z,1.50
2023-03-31T02:18:16.397Z,1.40
2023-03-31T02:19:16.405Z,1.50
2023-03-31T02:20:16.386Z,1.40
2023-03-31T02:21:16.371Z,1.50
2023-03-31T02:22:16.380Z,1.30
2023-03-31T02:23:16.379Z,1.40
2023-03-31T02:24:16.365Z,1.40
2023-03-31T02:25:16.378Z,1.30
2023-03-31T02:26:16.333Z,1.60
2023-03-31T02:27:16.336Z,1.40
2023-03-31T02:28:16.314Z,1.30
2023-03-31T02:29:16.325Z,1.70
2023-03-31T02:30:16.325Z,1.60
2023-03-31T02:31:16.367Z,1.40
2023-03-31T02:32:16.304Z,1.40
2023-03-31T02:33:16.314Z,1.60
2023-03-31T02:34:16.302Z,1.30
2023-03-31T02:35:16.317Z,1.40
2023-03-31T02:36:16.381Z,1.20
2023-03-31T02:37:16.298Z,1.60
2023-03-31T02:38:16.288Z,1.30
2023-03-31T02:39:16.276Z,1.80
2023-03-31T02:40:16.239Z,1.60
2023-03-31T02:41:16.245Z,1.30
2023-03-31T02:42:16.244Z,1.40
2023-03-31T02:43:16.252Z,1.40
2023-03-31T02:44:16.255Z,1.50
2023-03-31T02:45:17.303Z,1.40
2023-03-31T02:46:16.274Z,1.30
2023-03-31T02:47:16.248Z,1.30
2023-03-31T02:48:16.217Z,1.40
2023-03-31T02:49:16.242Z,1.60
2023-03-31T02:50:16.193Z,1.40
2023-03-31T02:51:16.182Z,1.50
2023-03-31T02:52:16.172Z,1.40
2023-03-31T02:53:16.184Z,1.30
2023-03-31T02:54:16.204Z,1.40
2023-03-31T02:55:16.176Z,1.50
2023-03-31T02:56:16.164Z,1.40
2023-03-31T02:57:16.193Z,1.60
2023-03-31T02:58:16.171Z,1.50
2023-03-31T02:59:16.120Z,1.40
2023-03-31T03:00:16.170Z,1.50
2023-03-31T03:01:16.144Z,1.60
2023-03-31T03:02:16.174Z,1.40
2023-03-31T03:03:16.183Z,1.60
2023-03-31T03:04:16.118Z,1.40
2023-03-31T03:05:16.132Z,1.40
2023-03-31T03:06:16.131Z,1.20
2023-03-31T03:07:16.095Z,1.20
2023-03-31T03:08:16.074Z,1.60
2023-03-31T03:09:16.081Z,1.30
2023-03-31T03:10:16.048Z,1.40
2023-03-31T03:11:16.047Z,1.40
2023-03-31T03:12:16.050Z,1.30
2023-03-31T03:13:16.043Z,1.70
2023-03-31T03:14:16.027Z,1.30
2023-03-31T03:15:16.025Z,1.50
2023-03-31T03:16:16.046Z,1.50
2023-03-31T03:17:15.998Z,1.30
2023-03-31T03:18:16.014Z,1.50
2023-03-31T03:19:15.992Z,1.30
2023-03-31T03:20:15.983Z,1.30
2023-03-31T03:21:16.003Z,1.30
2023-03-31T03:22:15.999Z,1.20
2023-03-31T03:23:15.989Z,1.20
2023-03-31T03:24:15.957Z,1.40
2023-03-31T03:25:15.940Z,1.10
2023-03-31T03:26:15.915Z,1.20
2023-03-31T03:27:15.937Z,1.20
2023-03-31T03:28:15.957Z,1.20
2023-03-31T03:29:15.958Z,1.30
2023-03-31T03:30:15.917Z,1.30
2023-03-31T03:31:16.018Z,1.10
2023-03-31T03:32:15.908Z,1.40
2023-03-31T03:33:16.024Z,1.60
2023-03-31T03:34:16.916Z,1.50
2023-03-31T03:35:15.891Z,1.50
2023-03-31T03:36:15.888Z,1.80
2023-03-31T03:37:15.845Z,1.70
2023-03-31T03:38:15.858Z,1.70
2023-03-31T03:39:15.900Z,2.00
2023-03-31T03:40:15.868Z,2.10
2023-03-31T03:41:15.817Z,2.00
2023-03-31T03:42:15.858Z,1.80
2023-03-31T03:43:15.841Z,2.00
2023-03-31T03:44:15.817Z,2.10
2023-03-31T03:45:15.799Z,2.00
2023-03-31T03:46:15.846Z,2.30
2023-03-31T03:47:15.782Z,1.90
2023-03-31T03:48:15.773Z,2.00
2023-03-31T03:49:15.772Z,2.10
2023-03-31T03:50:16.432Z,2.00
2023-03-31T03:51:16.780Z,2.10
2023-03-31T03:52:15.749Z,2.10
2023-03-31T03:53:15.765Z,2.10
2023-03-31T03:54:15.753Z,2.80
2023-03-31T03:55:15.735Z,2.80
2023-03-31T03:56:15.760Z,3.00
2023-03-31T03:57:15.784Z,2.60
2023-03-31T03:58:15.713Z,2.60
2023-03-31T03:59:15.757Z,2.50
2023-03-31T04:00:15.719Z,3.20
2023-03-31T04:01:15.701Z,3.20
2023-03-31T04:02:15.734Z,3.60
2023-03-31T04:03:15.705Z,3.70
2023-03-31T04:04:15.689Z,3.70
2023-03-31T04:05:15.733Z,4.00
2023-03-31T04:06:15.672Z,3.90
2023-03-31T04:07:15.644Z,4.10
2023-03-31T04:08:15.621Z,3.80
2023-03-31T04:09:15.668Z,4.00
2023-03-31T04:10:16.641Z,4.00
2023-03-31T04:11:18.082Z,4.40
2023-03-31T04:12:16.605Z,3.80
2023-03-31T04:13:15.610Z,4.40
2023-03-31T04:14:15.604Z,5.10
2023-03-31T04:15:15.586Z,5.10
2023-03-31T04:16:15.626Z,5.00
2023-03-31T04:17:15.575Z,5.10
2023-03-31T04:18:15.584Z,4.70
2023-03-31T04:19:15.606Z,5.20
2023-03-31T04:20:15.577Z,5.20
2023-03-31T04:21:15.554Z,4.60
2023-03-31T04:22:15.533Z,4.60
2023-03-31T04:23:15.561Z,4.80
2023-03-31T04:24:15.556Z,4.70
2023-03-31T04:25:15.545Z,3.90
2023-03-31T04:26:15.525Z,3.70
2023-03-31T04:27:15.491Z,4.00
2023-03-31T04:28:15.492Z,4.00
2023-03-31T04:29:15.502Z,4.50
2023-03-31T04:30:15.493Z,4.00
2023-03-31T04:31:15.582Z,4.00
2023-03-31T04:32:15.499Z,3.90
2023-03-31T04:33:15.494Z,4.10
2023-03-31T04:34:15.475Z,4.00
2023-03-31T04:35:15.465Z,3.60
2023-03-31T04:36:15.440Z,3.60
2023-03-31T04:37:15.422Z,3.60
2023-03-31T04:38:15.454Z,3.50
2023-03-31T04:39:15.421Z,3.40
2023-03-31T04:40:15.442Z,3.60
2023-03-31T04:41:15.444Z,3.40
2023-03-31T04:42:15.404Z,3.30
2023-03-31T04:43:15.384Z,3.60
2023-03-31T04:44:15.398Z,3.40
2023-03-31T04:45:15.365Z,2.90
2023-03-31T04:46:15.440Z,3.10
2023-03-31T04:47:15.379Z,3.20
2023-03-31T04:48:15.365Z,2.90
2023-03-31T04:49:15.372Z,3.00
2023-03-31T04:50:17.180Z,2.80
2023-03-31T04:51:16.362Z,3.20
2023-03-31T04:52:15.326Z,2.70
2023-03-31T04:53:15.343Z,3.00
2023-03-31T04:54:15.346Z,2.60
2023-03-31T04:55:15.344Z,2.70
2023-03-31T04:56:15.322Z,2.70
2023-03-31T04:57:15.335Z,3.00
2023-03-31T04:58:15.270Z,2.90
2023-03-31T04:59:15.257Z,3.00
2023-03-31T05:00:15.385Z,3.20
2023-03-31T05:01:15.289Z,3.20
2023-03-31T05:02:15.321Z,3.30
2023-03-31T05:03:15.375Z,3.00
2023-03-31T05:04:15.239Z,2.80
2023-03-31T05:05:15.259Z,3.30
2023-03-31T05:06:15.251Z,3.00
2023-03-31T05:07:15.207Z,3.20
2023-03-31T05:08:16.197Z,3.40
2023-03-31T05:09:15.225Z,3.40
2023-03-31T05:10:15.242Z,3.30
